sensor_id;sensor_type;location;lat;lon;timestamp;P1;durP1;ratioP1;P2;durP2;ratioP2
54995;SDS011;40893;47.146;9.126;2022-08-05T00:01:01;4.38;;;2.60;;
54995;SDS011;40893;47.146;9.126;2022-08-05T00:03:27;4.03;;;2.42;;
54995;SDS011;40893;47.146;9.126;2022-08-05T00:05:52;5.18;;;2.90;;
54995;SDS011;40893;47.146;9.126;2022-08-05T00:08:18;4.05;;;2.20;;
54995;SDS011;40893;47.146;9.126;2022-08-05T00:10:43;6.70;;;2.45;;
54995;SDS011;40893;47.146;9.126;2022-08-05T00:13:09;4.35;;;2.85;;
54995;SDS011;40893;47.146;9.126;2022-08-05T00:15:35;4.22;;;2.47;;
54995;SDS011;40893;47.146;9.126;2022-08-05T00:18:00;2.30;;;2.10;;
54995;SDS011;40893;47.146;9.126;2022-08-05T00:20:26;4.43;;;2.40;;
54995;SDS011;40893;47.146;9.126;2022-08-05T00:22:51;2.50;;;2.30;;
54995;SDS011;40893;47.146;9.126;2022-08-05T00:25:17;2.72;;;2.10;;
54995;SDS011;40893;47.146;9.126;2022-08-05T00:27:42;5.50;;;2.50;;
54995;SDS011;40893;47.146;9.126;2022-08-05T00:30:08;5.07;;;2.72;;
54995;SDS011;40893;47.146;9.126;2022-08-05T00:32:34;4.63;;;2.55;;
54995;SDS011;40893;47.146;9.126;2022-08-05T00:35:00;3.33;;;2.70;;
54995;SDS011;40893;47.146;9.126;2022-08-05T00:37:26;5.35;;;2.50;;
54995;SDS011;40893;47.146;9.126;2022-08-05T00:39:51;2.88;;;2.38;;
54995;SDS011;40893;47.146;9.126;2022-08-05T00:42:28;4.03;;;2.47;;
54995;SDS011;40893;47.146;9.126;2022-08-05T00:44:58;3.30;;;2.55;;
54995;SDS011;40893;47.146;9.126;2022-08-05T00:47:23;2.83;;;2.45;;
54995;SDS011;40893;47.146;9.126;2022-08-05T00:49:49;3.85;;;2.28;;
54995;SDS011;40893;47.146;9.126;2022-08-05T00:52:14;2.60;;;2.30;;
54995;SDS011;40893;47.146;9.126;2022-08-05T00:54:40;3.03;;;2.40;;
54995;SDS011;40893;47.146;9.126;2022-08-05T00:57:05;2.97;;;2.67;;
54995;SDS011;40893;47.146;9.126;2022-08-05T00:59:31;2.45;;;2.25;;
54995;SDS011;40893;47.146;9.126;2022-08-05T01:01:56;4.65;;;2.40;;
54995;SDS011;40893;47.146;9.126;2022-08-05T01:04:22;2.97;;;2.72;;
54995;SDS011;40893;47.146;9.126;2022-08-05T01:06:47;3.70;;;2.70;;
54995;SDS011;40893;47.146;9.126;2022-08-05T01:09:14;2.97;;;2.70;;
54995;SDS011;40893;47.146;9.126;2022-08-05T01:11:40;3.65;;;2.88;;
54995;SDS011;40893;47.146;9.126;2022-08-05T01:14:13;3.00;;;2.80;;
54995;SDS011;40893;47.146;9.126;2022-08-05T01:16:50;4.80;;;2.90;;
54995;SDS011;40893;47.146;9.126;2022-08-05T01:30:04;6.53;;;2.80;;
54995;SDS011;40893;47.146;9.126;2022-08-05T01:32:32;3.67;;;2.83;;
54995;SDS011;40893;47.146;9.126;2022-08-05T01:35:01;4.03;;;2.85;;
54995;SDS011;40893;47.146;9.126;2022-08-05T01:40:08;3.00;;;2.50;;
54995;SDS011;40893;47.146;9.126;2022-08-05T01:42:35;2.88;;;2.67;;
54995;SDS011;40893;47.146;9.126;2022-08-05T01:45:03;3.38;;;2.50;;
54995;SDS011;40893;47.146;9.126;2022-08-05T01:47:31;3.33;;;3.03;;
54995;SDS011;40893;47.146;9.126;2022-08-05T01:49:59;3.08;;;2.88;;
54995;SDS011;40893;47.146;9.126;2022-08-05T01:52:28;3.20;;;2.90;;
54995;SDS011;40893;47.146;9.126;2022-08-05T01:54:56;4.70;;;3.20;;
54995;SDS011;40893;47.146;9.126;2022-08-05T01:57:24;3.28;;;2.95;;
54995;SDS011;40893;47.146;9.126;2022-08-05T01:59:53;3.50;;;2.97;;
54995;SDS011;40893;47.146;9.126;2022-08-05T02:02:24;4.82;;;3.38;;
54995;SDS011;40893;47.146;9.126;2022-08-05T02:04:52;3.75;;;2.80;;
54995;SDS011;40893;47.146;9.126;2022-08-05T02:07:20;5.20;;;3.33;;
54995;SDS011;40893;47.146;9.126;2022-08-05T02:09:47;3.78;;;2.88;;
54995;SDS011;40893;47.146;9.126;2022-08-05T02:15:22;3.15;;;2.47;;
54995;SDS011;40893;47.146;9.126;2022-08-05T02:17:52;4.65;;;2.95;;
54995;SDS011;40893;47.146;9.126;2022-08-05T02:20:29;3.60;;;2.92;;
54995;SDS011;40893;47.146;9.126;2022-08-05T02:23:02;3.97;;;2.70;;
54995;SDS011;40893;47.146;9.126;2022-08-05T02:25:35;3.17;;;2.88;;
54995;SDS011;40893;47.146;9.126;2022-08-05T02:28:05;5.22;;;2.72;;
54995;SDS011;40893;47.146;9.126;2022-08-05T02:30:44;2.67;;;2.47;;
54995;SDS011;40893;47.146;9.126;2022-08-05T02:33:17;2.88;;;2.60;;
54995;SDS011;40893;47.146;9.126;2022-08-05T02:35:45;3.08;;;2.40;;
54995;SDS011;40893;47.146;9.126;2022-08-05T02:38:11;6.05;;;2.80;;
54995;SDS011;40893;47.146;9.126;2022-08-05T02:40:39;6.72;;;3.00;;
54995;SDS011;40893;47.146;9.126;2022-08-05T02:43:07;2.60;;;2.40;;
54995;SDS011;40893;47.146;9.126;2022-08-05T02:45:35;3.42;;;2.60;;
54995;SDS011;40893;47.146;9.126;2022-08-05T02:48:04;2.72;;;2.35;;
54995;SDS011;40893;47.146;9.126;2022-08-05T02:50:33;3.15;;;2.40;;
54995;SDS011;40893;47.146;9.126;2022-08-05T02:52:59;2.30;;;2.20;;
54995;SDS011;40893;47.146;9.126;2022-08-05T02:55:25;3.28;;;2.33;;
54995;SDS011;40893;47.146;9.126;2022-08-05T02:57:52;2.80;;;2.55;;
54995;SDS011;40893;47.146;9.126;2022-08-05T03:00:19;3.35;;;2.20;;
54995;SDS011;40893;47.146;9.126;2022-08-05T03:02:45;2.63;;;2.42;;
54995;SDS011;40893;47.146;9.126;2022-08-05T03:05:12;3.80;;;2.50;;
54995;SDS011;40893;47.146;9.126;2022-08-05T03:07:39;4.30;;;2.65;;
54995;SDS011;40893;47.146;9.126;2022-08-05T03:10:09;4.82;;;2.55;;
54995;SDS011;40893;47.146;9.126;2022-08-05T03:12:36;2.65;;;2.45;;
54995;SDS011;40893;47.146;9.126;2022-08-05T03:15:04;2.38;;;2.10;;
54995;SDS011;40893;47.146;9.126;2022-08-05T03:17:31;2.60;;;2.40;;
54995;SDS011;40893;47.146;9.126;2022-08-05T03:19:57;3.33;;;2.20;;
54995;SDS011;40893;47.146;9.126;2022-08-05T03:22:23;5.25;;;2.50;;
54995;SDS011;40893;47.146;9.126;2022-08-05T03:24:49;2.97;;;2.78;;
54995;SDS011;40893;47.146;9.126;2022-08-05T03:27:16;2.47;;;2.30;;
54995;SDS011;40893;47.146;9.126;2022-08-05T03:29:42;2.75;;;2.55;;
54995;SDS011;40893;47.146;9.126;2022-08-05T03:32:08;3.20;;;2.90;;
54995;SDS011;40893;47.146;9.126;2022-08-05T03:34:34;3.28;;;2.97;;
54995;SDS011;40893;47.146;9.126;2022-08-05T03:37:01;2.35;;;2.15;;
54995;SDS011;40893;47.146;9.126;2022-08-05T03:39:27;3.22;;;2.92;;
54995;SDS011;40893;47.146;9.126;2022-08-05T03:41:53;3.80;;;3.17;;
54995;SDS011;40893;47.146;9.126;2022-08-05T03:44:19;5.32;;;3.40;;
54995;SDS011;40893;47.146;9.126;2022-08-05T03:46:45;3.97;;;3.58;;
54995;SDS011;40893;47.146;9.126;2022-08-05T03:49:10;3.80;;;3.50;;
54995;SDS011;40893;47.146;9.126;2022-08-05T03:51:44;4.68;;;3.70;;
54995;SDS011;40893;47.146;9.126;2022-08-05T03:57:04;2.85;;;2.58;;
54995;SDS011;40893;47.146;9.126;2022-08-05T03:59:33;4.05;;;2.60;;
54995;SDS011;40893;47.146;9.126;2022-08-05T04:02:04;2.13;;;2.03;;
54995;SDS011;40893;47.146;9.126;2022-08-05T04:04:32;2.92;;;2.50;;
54995;SDS011;40893;47.146;9.126;2022-08-05T04:06:59;3.95;;;2.17;;
54995;SDS011;40893;47.146;9.126;2022-08-05T04:09:26;2.20;;;2.00;;
54995;SDS011;40893;47.146;9.126;2022-08-05T04:11:54;2.50;;;2.20;;
54995;SDS011;40893;47.146;9.126;2022-08-05T04:14:20;3.03;;;1.90;;
54995;SDS011;40893;47.146;9.126;2022-08-05T04:16:46;2.28;;;2.08;;
54995;SDS011;40893;47.146;9.126;2022-08-05T04:19:12;2.28;;;2.08;;
54995;SDS011;40893;47.146;9.126;2022-08-05T04:21:38;2.10;;;1.92;;
54995;SDS011;40893;47.146;9.126;2022-08-05T04:24:04;3.30;;;2.20;;
54995;SDS011;40893;47.146;9.126;2022-08-05T04:26:30;2.38;;;1.88;;
54995;SDS011;40893;47.146;9.126;2022-08-05T04:28:56;2.30;;;2.10;;
54995;SDS011;40893;47.146;9.126;2022-08-05T04:31:21;2.13;;;1.83;;
54995;SDS011;40893;47.146;9.126;2022-08-05T04:33:47;4.78;;;2.00;;
54995;SDS011;40893;47.146;9.126;2022-08-05T04:36:13;2.00;;;1.75;;
54995;SDS011;40893;47.146;9.126;2022-08-05T04:38:40;2.22;;;2.03;;
54995;SDS011;40893;47.146;9.126;2022-08-05T04:41:06;2.05;;;1.92;;
54995;SDS011;40893;47.146;9.126;2022-08-05T04:43:32;2.42;;;2.20;;
54995;SDS011;40893;47.146;9.126;2022-08-05T04:45:58;2.10;;;1.90;;
54995;SDS011;40893;47.146;9.126;2022-08-05T04:48:23;1.98;;;1.88;;
54995;SDS011;40893;47.146;9.126;2022-08-05T04:50:48;2.03;;;1.92;;
54995;SDS011;40893;47.146;9.126;2022-08-05T04:53:16;2.20;;;2.10;;
54995;SDS011;40893;47.146;9.126;2022-08-05T04:55:42;2.38;;;2.17;;
54995;SDS011;40893;47.146;9.126;2022-08-05T04:58:11;2.65;;;1.98;;
54995;SDS011;40893;47.146;9.126;2022-08-05T05:00:39;3.35;;;2.05;;
54995;SDS011;40893;47.146;9.126;2022-08-05T05:03:06;3.35;;;2.25;;
54995;SDS011;40893;47.146;9.126;2022-08-05T05:05:32;2.60;;;2.00;;
54995;SDS011;40893;47.146;9.126;2022-08-05T05:08:00;2.03;;;1.83;;
54995;SDS011;40893;47.146;9.126;2022-08-05T05:10:28;2.90;;;1.90;;
54995;SDS011;40893;47.146;9.126;2022-08-05T05:12:55;2.47;;;2.13;;
54995;SDS011;40893;47.146;9.126;2022-08-05T05:15:20;2.92;;;2.28;;
54995;SDS011;40893;47.146;9.126;2022-08-05T05:17:46;2.30;;;2.10;;
54995;SDS011;40893;47.146;9.126;2022-08-05T05:20:12;2.60;;;2.00;;
54995;SDS011;40893;47.146;9.126;2022-08-05T05:22:38;2.63;;;2.10;;
54995;SDS011;40893;47.146;9.126;2022-08-05T05:25:04;2.22;;;2.05;;
54995;SDS011;40893;47.146;9.126;2022-08-05T05:27:32;2.75;;;2.38;;
54995;SDS011;40893;47.146;9.126;2022-08-05T05:29:59;4.07;;;2.08;;
54995;SDS011;40893;47.146;9.126;2022-08-05T05:32:24;6.53;;;2.47;;
54995;SDS011;40893;47.146;9.126;2022-08-05T05:34:50;3.40;;;2.30;;
54995;SDS011;40893;47.146;9.126;2022-08-05T05:37:16;4.40;;;2.28;;
54995;SDS011;40893;47.146;9.126;2022-08-05T05:39:41;3.58;;;2.15;;
54995;SDS011;40893;47.146;9.126;2022-08-05T05:42:07;2.20;;;2.00;;
54995;SDS011;40893;47.146;9.126;2022-08-05T05:44:33;3.28;;;2.15;;
54995;SDS011;40893;47.146;9.126;2022-08-05T05:46:59;2.08;;;1.98;;
54995;SDS011;40893;47.146;9.126;2022-08-05T05:49:24;2.58;;;2.05;;
54995;SDS011;40893;47.146;9.126;2022-08-05T05:51:50;2.70;;;1.90;;
54995;SDS011;40893;47.146;9.126;2022-08-05T05:54:16;2.38;;;1.80;;
54995;SDS011;40893;47.146;9.126;2022-08-05T05:56:42;2.35;;;1.90;;
54995;SDS011;40893;47.146;9.126;2022-08-05T05:59:07;2.30;;;2.10;;
54995;SDS011;40893;47.146;9.126;2022-08-05T06:01:37;2.08;;;1.90;;
54995;SDS011;40893;47.146;9.126;2022-08-05T06:04:11;2.75;;;1.85;;
54995;SDS011;40893;47.146;9.126;2022-08-05T06:06:38;3.25;;;2.65;;
54995;SDS011;40893;47.146;9.126;2022-08-05T06:09:07;4.55;;;1.95;;
54995;SDS011;40893;47.146;9.126;2022-08-05T06:11:33;3.50;;;1.92;;
54995;SDS011;40893;47.146;9.126;2022-08-05T06:13:59;2.60;;;2.20;;
54995;SDS011;40893;47.146;9.126;2022-08-05T06:16:25;1.80;;;1.70;;
54995;SDS011;40893;47.146;9.126;2022-08-05T06:18:51;2.40;;;1.85;;
54995;SDS011;40893;47.146;9.126;2022-08-05T06:21:16;1.85;;;1.75;;
54995;SDS011;40893;47.146;9.126;2022-08-05T06:23:42;2.00;;;1.80;;
54995;SDS011;40893;47.146;9.126;2022-08-05T06:26:09;2.30;;;2.10;;
54995;SDS011;40893;47.146;9.126;2022-08-05T06:28:34;3.20;;;1.85;;
54995;SDS011;40893;47.146;9.126;2022-08-05T06:31:01;5.80;;;2.30;;
54995;SDS011;40893;47.146;9.126;2022-08-05T06:33:27;2.20;;;2.00;;
54995;SDS011;40893;47.146;9.126;2022-08-05T06:35:52;3.88;;;1.95;;
54995;SDS011;40893;47.146;9.126;2022-08-05T06:38:18;4.22;;;2.13;;
54995;SDS011;40893;47.146;9.126;2022-08-05T06:40:43;2.25;;;1.50;;
54995;SDS011;40893;47.146;9.126;2022-08-05T06:43:09;1.70;;;1.60;;
54995;SDS011;40893;47.146;9.126;2022-08-05T06:45:34;2.15;;;1.88;;
54995;SDS011;40893;47.146;9.126;2022-08-05T06:48:00;2.00;;;1.88;;
54995;SDS011;40893;47.146;9.126;2022-08-05T06:50:25;2.42;;;1.73;;
54995;SDS011;40893;47.146;9.126;2022-08-05T06:52:51;1.88;;;1.73;;
54995;SDS011;40893;47.146;9.126;2022-08-05T06:55:17;2.92;;;1.90;;
54995;SDS011;40893;47.146;9.126;2022-08-05T06:57:42;2.22;;;1.92;;
54995;SDS011;40893;47.146;9.126;2022-08-05T07:00:08;1.90;;;1.80;;
54995;SDS011;40893;47.146;9.126;2022-08-05T07:02:44;1.92;;;1.83;;
54995;SDS011;40893;47.146;9.126;2022-08-05T07:05:11;1.83;;;1.73;;
54995;SDS011;40893;47.146;9.126;2022-08-05T07:07:38;2.65;;;1.67;;
54995;SDS011;40893;47.146;9.126;2022-08-05T07:10:04;1.75;;;1.65;;
54995;SDS011;40893;47.146;9.126;2022-08-05T07:12:31;4.32;;;2.00;;
54995;SDS011;40893;47.146;9.126;2022-08-05T07:15:14;3.90;;;2.10;;
54995;SDS011;40893;47.146;9.126;2022-08-05T07:17:58;2.30;;;1.75;;
54995;SDS011;40893;47.146;9.126;2022-08-05T07:20:24;2.90;;;1.95;;
54995;SDS011;40893;47.146;9.126;2022-08-05T07:22:49;2.42;;;1.65;;
54995;SDS011;40893;47.146;9.126;2022-08-05T07:25:15;2.08;;;1.77;;
54995;SDS011;40893;47.146;9.126;2022-08-05T07:27:40;2.00;;;1.80;;
54995;SDS011;40893;47.146;9.126;2022-08-05T07:30:06;2.67;;;1.67;;
54995;SDS011;40893;47.146;9.126;2022-08-05T07:32:36;2.67;;;1.60;;
54995;SDS011;40893;47.146;9.126;2022-08-05T07:35:09;1.70;;;1.60;;
54995;SDS011;40893;47.146;9.126;2022-08-05T07:37:35;3.40;;;1.95;;
54995;SDS011;40893;47.146;9.126;2022-08-05T07:40:02;1.90;;;1.80;;
54995;SDS011;40893;47.146;9.126;2022-08-05T07:42:28;2.03;;;1.67;;
54995;SDS011;40893;47.146;9.126;2022-08-05T07:44:53;2.30;;;1.90;;
54995;SDS011;40893;47.146;9.126;2022-08-05T07:47:19;1.83;;;1.73;;
54995;SDS011;40893;47.146;9.126;2022-08-05T07:49:45;1.88;;;1.77;;
54995;SDS011;40893;47.146;9.126;2022-08-05T07:52:11;1.90;;;1.75;;
54995;SDS011;40893;47.146;9.126;2022-08-05T07:54:36;2.30;;;1.90;;
54995;SDS011;40893;47.146;9.126;2022-08-05T07:57:02;5.93;;;1.75;;
54995;SDS011;40893;47.146;9.126;2022-08-05T07:59:28;1.90;;;1.80;;
54995;SDS011;40893;47.146;9.126;2022-08-05T08:01:54;1.70;;;1.60;;
54995;SDS011;40893;47.146;9.126;2022-08-05T08:04:19;2.35;;;1.50;;
54995;SDS011;40893;47.146;9.126;2022-08-05T08:06:45;1.70;;;1.60;;
54995;SDS011;40893;47.146;9.126;2022-08-05T08:09:11;3.00;;;1.90;;
54995;SDS011;40893;47.146;9.126;2022-08-05T08:11:36;1.80;;;1.65;;
54995;SDS011;40893;47.146;9.126;2022-08-05T08:14:02;1.85;;;1.70;;
54995;SDS011;40893;47.146;9.126;2022-08-05T08:16:28;2.45;;;1.70;;
54995;SDS011;40893;47.146;9.126;2022-08-05T08:18:54;1.60;;;1.50;;
54995;SDS011;40893;47.146;9.126;2022-08-05T08:21:19;1.90;;;1.80;;
54995;SDS011;40893;47.146;9.126;2022-08-05T08:23:45;1.60;;;1.50;;
54995;SDS011;40893;47.146;9.126;2022-08-05T08:26:10;2.30;;;1.65;;
54995;SDS011;40893;47.146;9.126;2022-08-05T08:28:40;2.45;;;1.30;;
54995;SDS011;40893;47.146;9.126;2022-08-05T08:31:06;1.95;;;1.60;;
54995;SDS011;40893;47.146;9.126;2022-08-05T08:33:32;1.60;;;1.50;;
54995;SDS011;40893;47.146;9.126;2022-08-05T08:35:57;2.13;;;1.67;;
54995;SDS011;40893;47.146;9.126;2022-08-05T08:38:23;1.60;;;1.50;;
54995;SDS011;40893;47.146;9.126;2022-08-05T08:40:48;3.63;;;1.70;;
54995;SDS011;40893;47.146;9.126;2022-08-05T08:43:14;1.77;;;1.67;;
54995;SDS011;40893;47.146;9.126;2022-08-05T08:45:41;2.67;;;1.77;;
54995;SDS011;40893;47.146;9.126;2022-08-05T08:48:08;2.00;;;1.90;;
54995;SDS011;40893;47.146;9.126;2022-08-05T08:50:37;1.98;;;1.88;;
54995;SDS011;40893;47.146;9.126;2022-08-05T08:53:04;1.90;;;1.60;;
54995;SDS011;40893;47.146;9.126;2022-08-05T08:55:32;1.63;;;1.52;;
54995;SDS011;40893;47.146;9.126;2022-08-05T08:58:01;2.47;;;1.73;;
54995;SDS011;40893;47.146;9.126;2022-08-05T09:00:28;1.58;;;1.40;;
54995;SDS011;40893;47.146;9.126;2022-08-05T09:02:54;1.90;;;1.73;;
54995;SDS011;40893;47.146;9.126;2022-08-05T09:05:21;1.70;;;1.60;;
54995;SDS011;40893;47.146;9.126;2022-08-05T09:07:47;1.95;;;1.70;;
54995;SDS011;40893;47.146;9.126;2022-08-05T09:10:14;1.60;;;1.50;;
54995;SDS011;40893;47.146;9.126;2022-08-05T09:12:40;2.15;;;1.88;;
54995;SDS011;40893;47.146;9.126;2022-08-05T09:15:06;1.65;;;1.55;;
54995;SDS011;40893;47.146;9.126;2022-08-05T09:17:32;2.38;;;1.50;;
54995;SDS011;40893;47.146;9.126;2022-08-05T09:19:58;1.90;;;1.80;;
54995;SDS011;40893;47.146;9.126;2022-08-05T09:22:25;1.95;;;1.85;;
54995;SDS011;40893;47.146;9.126;2022-08-05T09:24:58;3.58;;;1.70;;
54995;SDS011;40893;47.146;9.126;2022-08-05T09:27:34;3.00;;;1.80;;
54995;SDS011;40893;47.146;9.126;2022-08-05T09:30:04;1.70;;;1.60;;
54995;SDS011;40893;47.146;9.126;2022-08-05T09:32:34;2.38;;;1.52;;
54995;SDS011;40893;47.146;9.126;2022-08-05T09:35:08;1.80;;;1.70;;
54995;SDS011;40893;47.146;9.126;2022-08-05T09:37:47;1.90;;;1.80;;
54995;SDS011;40893;47.146;9.126;2022-08-05T09:43:02;1.77;;;1.63;;
54995;SDS011;40893;47.146;9.126;2022-08-05T09:45:40;1.70;;;1.60;;
54995;SDS011;40893;47.146;9.126;2022-08-05T09:50:47;1.85;;;1.55;;
54995;SDS011;40893;47.146;9.126;2022-08-05T09:53:14;2.03;;;1.83;;
54995;SDS011;40893;47.146;9.126;2022-08-05T09:55:40;1.90;;;1.80;;
54995;SDS011;40893;47.146;9.126;2022-08-05T09:58:09;2.03;;;1.67;;
54995;SDS011;40893;47.146;9.126;2022-08-05T10:00:36;3.03;;;1.80;;
54995;SDS011;40893;47.146;9.126;2022-08-05T10:03:07;2.22;;;1.77;;
54995;SDS011;40893;47.146;9.126;2022-08-05T10:05:35;2.10;;;1.80;;
54995;SDS011;40893;47.146;9.126;2022-08-05T10:08:04;1.77;;;1.67;;
54995;SDS011;40893;47.146;9.126;2022-08-05T10:13:08;1.90;;;1.80;;
54995;SDS011;40893;47.146;9.126;2022-08-05T10:15:34;1.98;;;1.88;;
54995;SDS011;40893;47.146;9.126;2022-08-05T10:18:12;1.90;;;1.80;;
54995;SDS011;40893;47.146;9.126;2022-08-05T10:20:43;2.40;;;2.05;;
54995;SDS011;40893;47.146;9.126;2022-08-05T10:23:17;1.85;;;1.75;;
54995;SDS011;40893;47.146;9.126;2022-08-05T10:25:45;1.75;;;1.65;;
54995;SDS011;40893;47.146;9.126;2022-08-05T10:28:10;2.10;;;1.90;;
54995;SDS011;40893;47.146;9.126;2022-08-05T10:30:36;2.08;;;1.80;;
54995;SDS011;40893;47.146;9.126;2022-08-05T10:33:03;1.70;;;1.60;;
54995;SDS011;40893;47.146;9.126;2022-08-05T10:35:32;3.35;;;1.80;;
54995;SDS011;40893;47.146;9.126;2022-08-05T10:37:57;1.95;;;1.83;;
54995;SDS011;40893;47.146;9.126;2022-08-05T10:46:43;2.15;;;1.67;;
54995;SDS011;40893;47.146;9.126;2022-08-05T10:49:10;1.90;;;1.67;;
54995;SDS011;40893;47.146;9.126;2022-08-05T10:51:43;3.70;;;2.13;;
54995;SDS011;40893;47.146;9.126;2022-08-05T10:54:15;2.35;;;1.90;;
54995;SDS011;40893;47.146;9.126;2022-08-05T10:59:15;2.35;;;2.10;;
54995;SDS011;40893;47.146;9.126;2022-08-05T11:01:43;1.88;;;1.73;;
54995;SDS011;40893;47.146;9.126;2022-08-05T11:04:14;2.33;;;1.77;;
54995;SDS011;40893;47.146;9.126;2022-08-05T11:09:25;2.20;;;1.95;;
54995;SDS011;40893;47.146;9.126;2022-08-05T11:17:40;2.00;;;1.90;;
54995;SDS011;40893;47.146;9.126;2022-08-05T11:20:11;3.83;;;1.90;;
54995;SDS011;40893;47.146;9.126;2022-08-05T11:22:59;2.45;;;2.22;;
54995;SDS011;40893;47.146;9.126;2022-08-05T11:33:32;2.10;;;1.90;;
54995;SDS011;40893;47.146;9.126;2022-08-05T11:36:06;2.92;;;2.10;;
54995;SDS011;40893;47.146;9.126;2022-08-05T11:41:07;2.08;;;1.88;;
54995;SDS011;40893;47.146;9.126;2022-08-05T11:43:44;2.92;;;2.05;;
54995;SDS011;40893;47.146;9.126;2022-08-05T11:46:33;2.35;;;2.00;;
54995;SDS011;40893;47.146;9.126;2022-08-05T11:49:03;3.95;;;1.92;;
54995;SDS011;40893;47.146;9.126;2022-08-05T11:51:30;3.08;;;2.15;;
54995;SDS011;40893;47.146;9.126;2022-08-05T11:53:56;2.20;;;2.10;;
54995;SDS011;40893;47.146;9.126;2022-08-05T11:56:22;2.13;;;1.92;;
54995;SDS011;40893;47.146;9.126;2022-08-05T11:58:48;2.30;;;2.10;;
54995;SDS011;40893;47.146;9.126;2022-08-05T12:06:09;2.72;;;1.98;;
54995;SDS011;40893;47.146;9.126;2022-08-05T12:08:47;2.42;;;2.20;;
54995;SDS011;40893;47.146;9.126;2022-08-05T12:11:20;2.00;;;1.90;;
54995;SDS011;40893;47.146;9.126;2022-08-05T12:13:58;2.00;;;1.90;;
54995;SDS011;40893;47.146;9.126;2022-08-05T12:16:31;2.13;;;1.98;;
54995;SDS011;40893;47.146;9.126;2022-08-05T12:19:00;2.72;;;1.92;;
54995;SDS011;40893;47.146;9.126;2022-08-05T12:21:27;1.90;;;1.80;;
54995;SDS011;40893;47.146;9.126;2022-08-05T12:24:06;3.88;;;1.88;;
54995;SDS011;40893;47.146;9.126;2022-08-05T12:26:36;2.10;;;1.95;;
54995;SDS011;40893;47.146;9.126;2022-08-05T12:29:04;2.20;;;2.00;;
54995;SDS011;40893;47.146;9.126;2022-08-05T12:31:34;2.20;;;2.10;;
54995;SDS011;40893;47.146;9.126;2022-08-05T12:34:04;2.38;;;1.95;;
54995;SDS011;40893;47.146;9.126;2022-08-05T12:36:31;2.50;;;2.15;;
54995;SDS011;40893;47.146;9.126;2022-08-05T12:38:57;3.47;;;2.17;;
54995;SDS011;40893;47.146;9.126;2022-08-05T12:41:28;2.15;;;1.70;;
54995;SDS011;40893;47.146;9.126;2022-08-05T12:43:57;2.47;;;2.28;;
54995;SDS011;40893;47.146;9.126;2022-08-05T12:46:26;3.33;;;2.22;;
54995;SDS011;40893;47.146;9.126;2022-08-05T12:51:54;3.30;;;2.25;;
54995;SDS011;40893;47.146;9.126;2022-08-05T12:54:30;2.30;;;2.10;;
54995;SDS011;40893;47.146;9.126;2022-08-05T12:59:30;2.47;;;2.28;;
54995;SDS011;40893;47.146;9.126;2022-08-05T13:02:07;2.45;;;2.25;;
54995;SDS011;40893;47.146;9.126;2022-08-05T13:04:35;2.17;;;1.92;;
54995;SDS011;40893;47.146;9.126;2022-08-05T13:07:10;2.50;;;2.30;;
54995;SDS011;40893;47.146;9.126;2022-08-05T13:09:56;2.47;;;2.28;;
54995;SDS011;40893;47.146;9.126;2022-08-05T13:12:24;2.47;;;2.13;;
54995;SDS011;40893;47.146;9.126;2022-08-05T13:14:57;2.33;;;2.10;;
54995;SDS011;40893;47.146;9.126;2022-08-05T13:17:28;2.00;;;1.90;;
54995;SDS011;40893;47.146;9.126;2022-08-05T13:20:17;2.50;;;2.30;;
54995;SDS011;40893;47.146;9.126;2022-08-05T13:22:49;2.40;;;2.20;;
54995;SDS011;40893;47.146;9.126;2022-08-05T13:25:16;2.10;;;2.00;;
54995;SDS011;40893;47.146;9.126;2022-08-05T13:27:45;3.53;;;2.42;;
54995;SDS011;40893;47.146;9.126;2022-08-05T13:30:13;2.08;;;1.88;;
54995;SDS011;40893;47.146;9.126;2022-08-05T13:32:41;2.42;;;2.22;;
54995;SDS011;40893;47.146;9.126;2022-08-05T13:35:07;2.90;;;2.25;;
54995;SDS011;40893;47.146;9.126;2022-08-05T13:37:38;2.40;;;2.20;;
54995;SDS011;40893;47.146;9.126;2022-08-05T13:40:04;2.95;;;2.15;;
54995;SDS011;40893;47.146;9.126;2022-08-05T13:42:30;4.05;;;2.35;;
54995;SDS011;40893;47.146;9.126;2022-08-05T13:44:56;4.07;;;2.30;;
54995;SDS011;40893;47.146;9.126;2022-08-05T13:47:21;2.25;;;2.05;;
54995;SDS011;40893;47.146;9.126;2022-08-05T13:49:48;3.50;;;2.30;;
54995;SDS011;40893;47.146;9.126;2022-08-05T13:52:21;5.07;;;2.10;;
54995;SDS011;40893;47.146;9.126;2022-08-05T13:54:50;4.68;;;2.53;;
54995;SDS011;40893;47.146;9.126;2022-08-05T13:57:19;3.50;;;2.35;;
54995;SDS011;40893;47.146;9.126;2022-08-05T13:59:45;2.38;;;2.22;;
54995;SDS011;40893;47.146;9.126;2022-08-05T14:02:11;2.42;;;2.22;;
54995;SDS011;40893;47.146;9.126;2022-08-05T14:04:38;2.70;;;2.50;;
54995;SDS011;40893;47.146;9.126;2022-08-05T14:07:25;2.55;;;2.35;;
54995;SDS011;40893;47.146;9.126;2022-08-05T14:09:53;2.45;;;2.20;;
54995;SDS011;40893;47.146;9.126;2022-08-05T14:12:19;3.30;;;2.67;;
54995;SDS011;40893;47.146;9.126;2022-08-05T14:14:45;2.53;;;2.33;;
54995;SDS011;40893;47.146;9.126;2022-08-05T14:17:11;4.72;;;2.47;;
54995;SDS011;40893;47.146;9.126;2022-08-05T14:19:38;3.45;;;2.47;;
54995;SDS011;40893;47.146;9.126;2022-08-05T14:22:04;2.80;;;2.58;;
54995;SDS011;40893;47.146;9.126;2022-08-05T14:24:30;4.93;;;2.55;;
54995;SDS011;40893;47.146;9.126;2022-08-05T14:26:55;3.10;;;2.50;;
54995;SDS011;40893;47.146;9.126;2022-08-05T14:29:21;4.63;;;2.40;;
54995;SDS011;40893;47.146;9.126;2022-08-05T14:31:46;4.97;;;2.50;;
54995;SDS011;40893;47.146;9.126;2022-08-05T14:34:12;4.82;;;2.70;;
54995;SDS011;40893;47.146;9.126;2022-08-05T14:36:37;5.13;;;2.60;;
54995;SDS011;40893;47.146;9.126;2022-08-05T14:39:03;3.78;;;2.45;;
54995;SDS011;40893;47.146;9.126;2022-08-05T14:41:30;4.32;;;2.35;;
54995;SDS011;40893;47.146;9.126;2022-08-05T14:43:56;2.97;;;2.50;;
54995;SDS011;40893;47.146;9.126;2022-08-05T14:46:22;4.28;;;2.75;;
54995;SDS011;40893;47.146;9.126;2022-08-05T14:48:49;6.05;;;2.70;;
54995;SDS011;40893;47.146;9.126;2022-08-05T14:51:15;4.13;;;2.42;;
54995;SDS011;40893;47.146;9.126;2022-08-05T14:53:41;2.60;;;2.30;;
54995;SDS011;40893;47.146;9.126;2022-08-05T14:56:07;4.68;;;2.63;;
54995;SDS011;40893;47.146;9.126;2022-08-05T14:58:32;4.47;;;2.60;;
54995;SDS011;40893;47.146;9.126;2022-08-05T15:00:58;3.05;;;2.85;;
54995;SDS011;40893;47.146;9.126;2022-08-05T15:03:24;3.85;;;2.45;;
54995;SDS011;40893;47.146;9.126;2022-08-05T15:05:50;5.50;;;2.70;;
54995;SDS011;40893;47.146;9.126;2022-08-05T15:08:16;2.83;;;2.60;;
54995;SDS011;40893;47.146;9.126;2022-08-05T15:10:41;2.83;;;2.63;;
54995;SDS011;40893;47.146;9.126;2022-08-05T15:13:08;3.58;;;2.42;;
54995;SDS011;40893;47.146;9.126;2022-08-05T15:15:33;2.75;;;2.53;;
54995;SDS011;40893;47.146;9.126;2022-08-05T15:17:59;3.17;;;2.72;;
54995;SDS011;40893;47.146;9.126;2022-08-05T15:20:25;4.35;;;3.13;;
54995;SDS011;40893;47.146;9.126;2022-08-05T15:22:50;2.92;;;2.65;;
54995;SDS011;40893;47.146;9.126;2022-08-05T15:25:16;4.10;;;2.90;;
54995;SDS011;40893;47.146;9.126;2022-08-05T15:27:42;3.88;;;2.80;;
54995;SDS011;40893;47.146;9.126;2022-08-05T15:30:08;7.68;;;2.85;;
54995;SDS011;40893;47.146;9.126;2022-08-05T15:32:35;3.03;;;2.72;;
54995;SDS011;40893;47.146;9.126;2022-08-05T15:35:01;4.97;;;3.10;;
54995;SDS011;40893;47.146;9.126;2022-08-05T15:37:27;2.65;;;2.45;;
54995;SDS011;40893;47.146;9.126;2022-08-05T15:39:53;3.10;;;2.80;;
54995;SDS011;40893;47.146;9.126;2022-08-05T15:42:21;4.93;;;3.00;;
54995;SDS011;40893;47.146;9.126;2022-08-05T15:44:48;5.18;;;2.60;;
54995;SDS011;40893;47.146;9.126;2022-08-05T15:47:14;3.63;;;2.58;;
54995;SDS011;40893;47.146;9.126;2022-08-05T15:49:40;3.40;;;2.80;;
54995;SDS011;40893;47.146;9.126;2022-08-05T15:52:05;3.97;;;3.22;;
54995;SDS011;40893;47.146;9.126;2022-08-05T15:54:31;3.60;;;3.00;;
54995;SDS011;40893;47.146;9.126;2022-08-05T15:56:57;3.17;;;2.90;;